sensor_id;sensor_type;location;lat;lon;timestamp;P1;durP1;ratioP1;P2;durP2;ratioP2
43990;SDS011;29654;50.784;20.604;2023-01-19T00:03:08;17.40;;;12.77;;
43990;SDS011;29654;50.784;20.604;2023-01-19T00:08:15;15.27;;;12.57;;
43990;SDS011;29654;50.784;20.604;2023-01-19T00:13:18;16.02;;;13.10;;
43990;SDS011;29654;50.784;20.604;2023-01-19T00:18:22;21.30;;;15.88;;
43990;SDS011;29654;50.784;20.604;2023-01-19T00:23:25;26.70;;;21.52;;
43990;SDS011;29654;50.784;20.604;2023-01-19T00:28:27;34.10;;;25.45;;
43990;SDS011;29654;50.784;20.604;2023-01-19T00:33:31;30.98;;;24.40;;
43990;SDS011;29654;50.784;20.604;2023-01-19T00:38:34;29.40;;;22.15;;
43990;SDS011;29654;50.784;20.604;2023-01-19T00:43:38;29.10;;;22.63;;
43990;SDS011;29654;50.784;20.604;2023-01-19T00:48:42;24.20;;;20.15;;
43990;SDS011;29654;50.784;20.604;2023-01-19T00:53:44;24.83;;;18.70;;
43990;SDS011;29654;50.784;20.604;2023-01-19T00:58:47;25.10;;;19.73;;
43990;SDS011;29654;50.784;20.604;2023-01-19T01:03:51;27.65;;;21.33;;
43990;SDS011;29654;50.784;20.604;2023-01-19T01:08:55;27.60;;;21.90;;
43990;SDS011;29654;50.784;20.604;2023-01-19T01:13:57;29.88;;;22.17;;
43990;SDS011;29654;50.784;20.604;2023-01-19T01:19:01;26.63;;;21.23;;
43990;SDS011;29654;50.784;20.604;2023-01-19T01:24:04;26.42;;;21.02;;
43990;SDS011;29654;50.784;20.604;2023-01-19T01:29:08;28.35;;;21.60;;
43990;SDS011;29654;50.784;20.604;2023-01-19T01:34:12;26.45;;;21.45;;
43990;SDS011;29654;50.784;20.604;2023-01-19T01:39:15;28.20;;;21.17;;
43990;SDS011;29654;50.784;20.604;2023-01-19T01:49:54;26.75;;;21.77;;
43990;SDS011;29654;50.784;20.604;2023-01-19T01:55:04;29.35;;;23.35;;
43990;SDS011;29654;50.784;20.604;2023-01-19T02:00:09;29.08;;;23.17;;
43990;SDS011;29654;50.784;20.604;2023-01-19T02:05:16;32.30;;;24.42;;
43990;SDS011;29654;50.784;20.604;2023-01-19T02:10:23;37.35;;;28.25;;
43990;SDS011;29654;50.784;20.604;2023-01-19T02:15:43;27.50;;;23.27;;
43990;SDS011;29654;50.784;20.604;2023-01-19T02:20:55;30.70;;;23.40;;
43990;SDS011;29654;50.784;20.604;2023-01-19T02:26:08;28.45;;;21.50;;
43990;SDS011;29654;50.784;20.604;2023-01-19T02:31:13;29.23;;;21.95;;
43990;SDS011;29654;50.784;20.604;2023-01-19T02:36:16;25.40;;;20.65;;
43990;SDS011;29654;50.784;20.604;2023-01-19T02:41:29;19.63;;;16.52;;
43990;SDS011;29654;50.784;20.604;2023-01-19T02:46:38;24.10;;;19.40;;
43990;SDS011;29654;50.784;20.604;2023-01-19T02:51:41;24.67;;;20.00;;
43990;SDS011;29654;50.784;20.604;2023-01-19T02:56:58;25.65;;;19.90;;
43990;SDS011;29654;50.784;20.604;2023-01-19T03:02:25;25.13;;;19.77;;
43990;SDS011;29654;50.784;20.604;2023-01-19T03:07:39;22.75;;;18.45;;
43990;SDS011;29654;50.784;20.604;2023-01-19T03:12:53;24.77;;;19.63;;
43990;SDS011;29654;50.784;20.604;2023-01-19T03:18:02;25.77;;;19.30;;
43990;SDS011;29654;50.784;20.604;2023-01-19T03:23:11;22.33;;;18.60;;
43990;SDS011;29654;50.784;20.604;2023-01-19T03:28:18;22.35;;;19.05;;
43990;SDS011;29654;50.784;20.604;2023-01-19T03:33:25;24.77;;;18.30;;
43990;SDS011;29654;50.784;20.604;2023-01-19T03:38:32;20.70;;;17.33;;
43990;SDS011;29654;50.784;20.604;2023-01-19T03:43:40;21.08;;;17.23;;
43990;SDS011;29654;50.784;20.604;2023-01-19T03:48:43;23.67;;;19.08;;
43990;SDS011;29654;50.784;20.604;2023-01-19T03:53:46;24.80;;;19.23;;
43990;SDS011;29654;50.784;20.604;2023-01-19T03:58:51;27.05;;;20.00;;
43990;SDS011;29654;50.784;20.604;2023-01-19T04:03:54;31.98;;;23.90;;
43990;SDS011;29654;50.784;20.604;2023-01-19T04:08:56;32.00;;;25.65;;
43990;SDS011;29654;50.784;20.604;2023-01-19T04:14:00;35.55;;;25.42;;
43990;SDS011;29654;50.784;20.604;2023-01-19T04:19:04;32.53;;;24.63;;
43990;SDS011;29654;50.784;20.604;2023-01-19T04:24:08;28.33;;;21.45;;
43990;SDS011;29654;50.784;20.604;2023-01-19T04:29:12;29.40;;;21.80;;
43990;SDS011;29654;50.784;20.604;2023-01-19T04:34:15;27.30;;;19.13;;
43990;SDS011;29654;50.784;20.604;2023-01-19T04:39:17;24.95;;;19.70;;
43990;SDS011;29654;50.784;20.604;2023-01-19T04:44:22;26.42;;;20.67;;
43990;SDS011;29654;50.784;20.604;2023-01-19T04:49:24;26.60;;;20.40;;
43990;SDS011;29654;50.784;20.604;2023-01-19T04:54:27;24.67;;;18.83;;
43990;SDS011;29654;50.784;20.604;2023-01-19T04:59:31;24.05;;;20.23;;
43990;SDS011;29654;50.784;20.604;2023-01-19T05:04:34;25.02;;;19.17;;
43990;SDS011;29654;50.784;20.604;2023-01-19T05:09:36;26.15;;;19.75;;
43990;SDS011;29654;50.784;20.604;2023-01-19T05:14:41;22.42;;;19.15;;
43990;SDS011;29654;50.784;20.604;2023-01-19T05:19:43;23.02;;;19.13;;
43990;SDS011;29654;50.784;20.604;2023-01-19T05:24:47;24.98;;;19.33;;
43990;SDS011;29654;50.784;20.604;2023-01-19T05:29:51;22.92;;;18.38;;
43990;SDS011;29654;50.784;20.604;2023-01-19T05:34:53;24.70;;;19.63;;
43990;SDS011;29654;50.784;20.604;2023-01-19T05:39:56;23.98;;;18.52;;
43990;SDS011;29654;50.784;20.604;2023-01-19T05:45:00;22.67;;;18.17;;
43990;SDS011;29654;50.784;20.604;2023-01-19T05:50:03;22.92;;;17.95;;
43990;SDS011;29654;50.784;20.604;2023-01-19T05:55:07;22.33;;;18.92;;
43990;SDS011;29654;50.784;20.604;2023-01-19T06:00:12;21.48;;;16.70;;
43990;SDS011;29654;50.784;20.604;2023-01-19T06:05:16;21.25;;;17.52;;
43990;SDS011;29654;50.784;20.604;2023-01-19T06:10:19;21.80;;;17.65;;
43990;SDS011;29654;50.784;20.604;2023-01-19T06:15:23;22.95;;;18.08;;
43990;SDS011;29654;50.784;20.604;2023-01-19T06:20:26;26.08;;;19.13;;
43990;SDS011;29654;50.784;20.604;2023-01-19T06:25:28;24.52;;;19.80;;
43990;SDS011;29654;50.784;20.604;2023-01-19T06:30:32;23.15;;;19.10;;
43990;SDS011;29654;50.784;20.604;2023-01-19T06:35:35;24.05;;;18.77;;
43990;SDS011;29654;50.784;20.604;2023-01-19T06:40:38;19.20;;;15.48;;
43990;SDS011;29654;50.784;20.604;2023-01-19T06:45:42;21.88;;;15.82;;
43990;SDS011;29654;50.784;20.604;2023-01-19T06:50:44;19.20;;;15.98;;
43990;SDS011;29654;50.784;20.604;2023-01-19T06:55:48;24.42;;;19.90;;
43990;SDS011;29654;50.784;20.604;2023-01-19T07:00:52;25.05;;;20.17;;
43990;SDS011;29654;50.784;20.604;2023-01-19T07:05:55;25.10;;;20.83;;
43990;SDS011;29654;50.784;20.604;2023-01-19T07:11:02;24.05;;;19.90;;
43990;SDS011;29654;50.784;20.604;2023-01-19T07:16:09;27.85;;;22.38;;
43990;SDS011;29654;50.784;20.604;2023-01-19T07:21:13;31.95;;;24.75;;
43990;SDS011;29654;50.784;20.604;2023-01-19T07:26:15;39.03;;;27.58;;
43990;SDS011;29654;50.784;20.604;2023-01-19T07:31:22;51.22;;;35.45;;
43990;SDS011;29654;50.784;20.604;2023-01-19T07:36:24;52.90;;;38.67;;
43990;SDS011;29654;50.784;20.604;2023-01-19T07:41:27;39.03;;;28.42;;
43990;SDS011;29654;50.784;20.604;2023-01-19T07:46:31;34.17;;;25.52;;
43990;SDS011;29654;50.784;20.604;2023-01-19T07:51:33;30.33;;;24.60;;
43990;SDS011;29654;50.784;20.604;2023-01-19T07:56:36;39.67;;;30.60;;
43990;SDS011;29654;50.784;20.604;2023-01-19T08:01:42;43.47;;;33.45;;
43990;SDS011;29654;50.784;20.604;2023-01-19T08:06:45;40.95;;;31.98;;
43990;SDS011;29654;50.784;20.604;2023-01-19T08:11:47;41.63;;;33.53;;
43990;SDS011;29654;50.784;20.604;2023-01-19T08:16:51;45.13;;;32.70;;
43990;SDS011;29654;50.784;20.604;2023-01-19T08:21:54;41.85;;;32.13;;
43990;SDS011;29654;50.784;20.604;2023-01-19T08:26:58;43.90;;;35.28;;
43990;SDS011;29654;50.784;20.604;2023-01-19T08:32:04;42.85;;;33.08;;
43990;SDS011;29654;50.784;20.604;2023-01-19T08:37:07;42.42;;;33.22;;
43990;SDS011;29654;50.784;20.604;2023-01-19T08:42:09;40.22;;;31.77;;
43990;SDS011;29654;50.784;20.604;2023-01-19T08:47:13;44.20;;;34.75;;
43990;SDS011;29654;50.784;20.604;2023-01-19T08:52:16;47.55;;;35.75;;
43990;SDS011;29654;50.784;20.604;2023-01-19T08:57:19;38.58;;;32.78;;
43990;SDS011;29654;50.784;20.604;2023-01-19T09:02:23;38.38;;;28.90;;
43990;SDS011;29654;50.784;20.604;2023-01-19T09:07:25;41.35;;;32.65;;
43990;SDS011;29654;50.784;20.604;2023-01-19T09:12:29;43.45;;;32.05;;
43990;SDS011;29654;50.784;20.604;2023-01-19T09:17:33;41.35;;;33.50;;
43990;SDS011;29654;50.784;20.604;2023-01-19T09:22:35;36.67;;;28.58;;
43990;SDS011;29654;50.784;20.604;2023-01-19T09:27:39;31.05;;;26.02;;
43990;SDS011;29654;50.784;20.604;2023-01-19T09:32:43;42.88;;;35.17;;
43990;SDS011;29654;50.784;20.604;2023-01-19T09:37:45;45.83;;;35.45;;
43990;SDS011;29654;50.784;20.604;2023-01-19T09:42:48;27.63;;;23.25;;
43990;SDS011;29654;50.784;20.604;2023-01-19T09:48:00;19.08;;;16.88;;
43990;SDS011;29654;50.784;20.604;2023-01-19T09:53:09;13.93;;;11.32;;
43990;SDS011;29654;50.784;20.604;2023-01-19T09:58:20;12.18;;;10.02;;
43990;SDS011;29654;50.784;20.604;2023-01-19T10:03:25;11.43;;;9.40;;
43990;SDS011;29654;50.784;20.604;2023-01-19T10:08:29;13.75;;;11.65;;
43990;SDS011;29654;50.784;20.604;2023-01-19T10:13:41;13.82;;;11.45;;
43990;SDS011;29654;50.784;20.604;2023-01-19T10:18:50;13.77;;;11.70;;
43990;SDS011;29654;50.784;20.604;2023-01-19T10:23:57;14.32;;;10.95;;
43990;SDS011;29654;50.784;20.604;2023-01-19T10:29:07;12.80;;;10.93;;
43990;SDS011;29654;50.784;20.604;2023-01-19T10:34:21;14.88;;;10.57;;
43990;SDS011;29654;50.784;20.604;2023-01-19T10:39:24;7.70;;;6.90;;
43990;SDS011;29654;50.784;20.604;2023-01-19T10:44:27;9.88;;;8.43;;
43990;SDS011;29654;50.784;20.604;2023-01-19T10:49:38;10.63;;;8.88;;
43990;SDS011;29654;50.784;20.604;2023-01-19T10:54:42;9.73;;;8.73;;
43990;SDS011;29654;50.784;20.604;2023-01-19T10:59:48;8.65;;;7.75;;
43990;SDS011;29654;50.784;20.604;2023-01-19T11:04:53;9.23;;;8.32;;
43990;SDS011;29654;50.784;20.604;2023-01-19T11:10:11;12.52;;;9.98;;
43990;SDS011;29654;50.784;20.604;2023-01-19T11:15:22;14.48;;;11.95;;
43990;SDS011;29654;50.784;20.604;2023-01-19T11:20:33;19.38;;;16.70;;
43990;SDS011;29654;50.784;20.604;2023-01-19T11:25:45;23.23;;;18.63;;
43990;SDS011;29654;50.784;20.604;2023-01-19T11:30:53;23.48;;;19.90;;
43990;SDS011;29654;50.784;20.604;2023-01-19T11:36:05;25.30;;;21.02;;
43990;SDS011;29654;50.784;20.604;2023-01-19T11:41:17;25.20;;;21.65;;
43990;SDS011;29654;50.784;20.604;2023-01-19T11:46:23;24.45;;;20.95;;
43990;SDS011;29654;50.784;20.604;2023-01-19T11:51:35;24.95;;;20.17;;
43990;SDS011;29654;50.784;20.604;2023-01-19T11:56:52;24.55;;;20.38;;
43990;SDS011;29654;50.784;20.604;2023-01-19T12:01:57;25.27;;;19.83;;
43990;SDS011;29654;50.784;20.604;2023-01-19T12:07:05;23.42;;;18.13;;
43990;SDS011;29654;50.784;20.604;2023-01-19T12:12:12;23.73;;;19.70;;
43990;SDS011;29654;50.784;20.604;2023-01-19T12:17:29;24.60;;;19.35;;
43990;SDS011;29654;50.784;20.604;2023-01-19T12:22:39;22.42;;;17.70;;
43990;SDS011;29654;50.784;20.604;2023-01-19T12:27:49;22.38;;;18.33;;
43990;SDS011;29654;50.784;20.604;2023-01-19T12:38:35;20.02;;;17.50;;
43990;SDS011;29654;50.784;20.604;2023-01-19T12:43:45;24.30;;;18.80;;
43990;SDS011;29654;50.784;20.604;2023-01-19T12:48:48;23.90;;;18.23;;
43990;SDS011;29654;50.784;20.604;2023-01-19T12:53:53;20.67;;;18.02;;
43990;SDS011;29654;50.784;20.604;2023-01-19T12:58:58;24.20;;;18.58;;
43990;SDS011;29654;50.784;20.604;2023-01-19T13:04:02;25.80;;;20.45;;
43990;SDS011;29654;50.784;20.604;2023-01-19T13:14:38;25.98;;;20.00;;
43990;SDS011;29654;50.784;20.604;2023-01-19T13:19:51;24.55;;;20.27;;
43990;SDS011;29654;50.784;20.604;2023-01-19T13:25:27;21.63;;;17.52;;
43990;SDS011;29654;50.784;20.604;2023-01-19T13:30:38;21.45;;;18.73;;
43990;SDS011;29654;50.784;20.604;2023-01-19T13:35:56;23.88;;;20.17;;
43990;SDS011;29654;50.784;20.604;2023-01-19T13:40:59;24.88;;;20.77;;
43990;SDS011;29654;50.784;20.604;2023-01-19T13:46:05;30.05;;;22.73;;
43990;SDS011;29654;50.784;20.604;2023-01-19T13:51:16;30.98;;;24.52;;
43990;SDS011;29654;50.784;20.604;2023-01-19T13:56:19;32.90;;;26.50;;
43990;SDS011;29654;50.784;20.604;2023-01-19T14:01:25;37.13;;;28.45;;
43990;SDS011;29654;50.784;20.604;2023-01-19T14:06:31;37.38;;;30.70;;
43990;SDS011;29654;50.784;20.604;2023-01-19T14:11:39;36.47;;;27.90;;
43990;SDS011;29654;50.784;20.604;2023-01-19T14:16:43;34.65;;;27.50;;
43990;SDS011;29654;50.784;20.604;2023-01-19T14:21:56;35.67;;;28.92;;
43990;SDS011;29654;50.784;20.604;2023-01-19T14:27:20;38.35;;;28.60;;
43990;SDS011;29654;50.784;20.604;2023-01-19T14:32:26;42.30;;;31.42;;
43990;SDS011;29654;50.784;20.604;2023-01-19T14:37:29;41.08;;;30.80;;
43990;SDS011;29654;50.784;20.604;2023-01-19T14:42:36;44.00;;;32.80;;
43990;SDS011;29654;50.784;20.604;2023-01-19T14:47:51;37.75;;;29.15;;
43990;SDS011;29654;50.784;20.604;2023-01-19T14:52:57;50.92;;;35.05;;
43990;SDS011;29654;50.784;20.604;2023-01-19T14:58:07;41.40;;;29.95;;
43990;SDS011;29654;50.784;20.604;2023-01-19T15:03:13;34.42;;;26.77;;
43990;SDS011;29654;50.784;20.604;2023-01-19T15:08:17;37.78;;;27.77;;
43990;SDS011;29654;50.784;20.604;2023-01-19T15:13:24;36.95;;;25.30;;
43990;SDS011;29654;50.784;20.604;2023-01-19T15:18:29;36.38;;;27.02;;
43990;SDS011;29654;50.784;20.604;2023-01-19T15:23:32;36.35;;;25.95;;
43990;SDS011;29654;50.784;20.604;2023-01-19T15:28:34;34.78;;;25.02;;
43990;SDS011;29654;50.784;20.604;2023-01-19T15:33:38;37.30;;;26.77;;
43990;SDS011;29654;50.784;20.604;2023-01-19T15:38:42;36.10;;;25.95;;
43990;SDS011;29654;50.784;20.604;2023-01-19T15:43:45;35.45;;;26.38;;
43990;SDS011;29654;50.784;20.604;2023-01-19T15:48:50;41.47;;;28.58;;
43990;SDS011;29654;50.784;20.604;2023-01-19T15:53:53;43.65;;;29.70;;
43990;SDS011;29654;50.784;20.604;2023-01-19T15:58:57;39.28;;;28.67;;
43990;SDS011;29654;50.784;20.604;2023-01-19T16:04:02;36.25;;;28.00;;
43990;SDS011;29654;50.784;20.604;2023-01-19T16:09:07;41.45;;;29.13;;
43990;SDS011;29654;50.784;20.604;2023-01-19T16:14:13;42.08;;;29.55;;
43990;SDS011;29654;50.784;20.604;2023-01-19T16:19:17;36.60;;;26.92;;
43990;SDS011;29654;50.784;20.604;2023-01-19T16:24:19;39.13;;;27.02;;
43990;SDS011;29654;50.784;20.604;2023-01-19T16:29:22;35.60;;;26.02;;
43990;SDS011;29654;50.784;20.604;2023-01-19T16:34:26;40.50;;;28.42;;
43990;SDS011;29654;50.784;20.604;2023-01-19T16:39:28;44.20;;;29.23;;
43990;SDS011;29654;50.784;20.604;2023-01-19T16:44:31;38.75;;;27.00;;
43990;SDS011;29654;50.784;20.604;2023-01-19T16:49:35;37.42;;;26.63;;
43990;SDS011;29654;50.784;20.604;2023-01-19T16:54:39;46.92;;;30.75;;
43990;SDS011;29654;50.784;20.604;2023-01-19T16:59:43;38.95;;;27.17;;
43990;SDS011;29654;50.784;20.604;2023-01-19T17:04:47;51.60;;;33.28;;
43990;SDS011;29654;50.784;20.604;2023-01-19T17:09:49;37.72;;;27.38;;
43990;SDS011;29654;50.784;20.604;2023-01-19T17:14:52;33.25;;;23.65;;
43990;SDS011;29654;50.784;20.604;2023-01-19T17:19:56;33.40;;;24.38;;
43990;SDS011;29654;50.784;20.604;2023-01-19T17:24:59;36.58;;;25.70;;
43990;SDS011;29654;50.784;20.604;2023-01-19T17:30:02;39.63;;;25.67;;
43990;SDS011;29654;50.784;20.604;2023-01-19T17:35:06;32.97;;;24.30;;
43990;SDS011;29654;50.784;20.604;2023-01-19T17:40:10;43.28;;;29.45;;
43990;SDS011;29654;50.784;20.604;2023-01-19T17:45:13;36.42;;;26.00;;
43990;SDS011;29654;50.784;20.604;2023-01-19T17:50:17;33.05;;;24.65;;
43990;SDS011;29654;50.784;20.604;2023-01-19T17:55:20;35.30;;;27.92;;
43990;SDS011;29654;50.784;20.604;2023-01-19T18:00:22;33.17;;;25.45;;
43990;SDS011;29654;50.784;20.604;2023-01-19T18:05:26;34.83;;;24.45;;
43990;SDS011;29654;50.784;20.604;2023-01-19T18:10:29;36.83;;;25.42;;
43990;SDS011;29654;50.784;20.604;2023-01-19T18:15:32;39.40;;;25.63;;
43990;SDS011;29654;50.784;20.604;2023-01-19T18:20:36;42.65;;;25.70;;
43990;SDS011;29654;50.784;20.604;2023-01-19T18:25:40;35.15;;;24.33;;
43990;SDS011;29654;50.784;20.604;2023-01-19T18:30:42;27.35;;;20.77;;
43990;SDS011;29654;50.784;20.604;2023-01-19T18:35:46;26.90;;;20.20;;
43990;SDS011;29654;50.784;20.604;2023-01-19T18:40:58;24.02;;;17.60;;
43990;SDS011;29654;50.784;20.604;2023-01-19T18:46:02;20.00;;;15.77;;
43990;SDS011;29654;50.784;20.604;2023-01-19T18:51:07;20.15;;;15.80;;
43990;SDS011;29654;50.784;20.604;2023-01-19T18:56:12;18.90;;;14.45;;
43990;SDS011;29654;50.784;20.604;2023-01-19T19:01:17;16.70;;;13.13;;
43990;SDS011;29654;50.784;20.604;2023-01-19T19:06:24;16.83;;;12.63;;
43990;SDS011;29654;50.784;20.604;2023-01-19T19:11:27;15.95;;;13.48;;
43990;SDS011;29654;50.784;20.604;2023-01-19T19:16:30;16.15;;;12.85;;
43990;SDS011;29654;50.784;20.604;2023-01-19T19:21:36;14.52;;;12.80;;
43990;SDS011;29654;50.784;20.604;2023-01-19T19:26:39;13.25;;;11.50;;
43990;SDS011;29654;50.784;20.604;2023-01-19T19:31:42;14.63;;;12.73;;
43990;SDS011;29654;50.784;20.604;2023-01-19T19:36:46;18.88;;;13.80;;
43990;SDS011;29654;50.784;20.604;2023-01-19T19:41:50;17.58;;;13.75;;
43990;SDS011;29654;50.784;20.604;2023-01-19T19:46:52;17.40;;;14.00;;
43990;SDS011;29654;50.784;20.604;2023-01-19T19:51:56;30.90;;;19.98;;
43990;SDS011;29654;50.784;20.604;2023-01-19T19:56:59;19.30;;;14.65;;
43990;SDS011;29654;50.784;20.604;2023-01-19T20:02:02;18.67;;;13.82;;
43990;SDS011;29654;50.784;20.604;2023-01-19T20:07:06;17.15;;;13.40;;
43990;SDS011;29654;50.784;20.604;2023-01-19T20:12:08;21.85;;;14.70;;
43990;SDS011;29654;50.784;20.604;2023-01-19T20:17:11;21.98;;;16.25;;
43990;SDS011;29654;50.784;20.604;2023-01-19T20:22:15;18.92;;;14.30;;
43990;SDS011;29654;50.784;20.604;2023-01-19T20:27:18;20.98;;;15.52;;
43990;SDS011;29654;50.784;20.604;2023-01-19T20:32:20;19.00;;;14.25;;
43990;SDS011;29654;50.784;20.604;2023-01-19T20:37:24;18.17;;;13.90;;
43990;SDS011;29654;50.784;20.604;2023-01-19T20:42:27;20.77;;;14.52;;
43990;SDS011;29654;50.784;20.604;2023-01-19T20:47:30;18.70;;;15.25;;
43990;SDS011;29654;50.784;20.604;2023-01-19T20:52:34;20.75;;;15.75;;
43990;SDS011;29654;50.784;20.604;2023-01-19T20:57:38;20.73;;;14.48;;
43990;SDS011;29654;50.784;20.604;2023-01-19T21:02:41;16.95;;;14.25;;
43990;SDS011;29654;50.784;20.604;2023-01-19T21:07:45;19.35;;;14.48;;
43990;SDS011;29654;50.784;20.604;2023-01-19T21:12:48;19.77;;;15.32;;
43990;SDS011;29654;50.784;20.604;2023-01-19T21:17:50;21.40;;;16.35;;
43990;SDS011;29654;50.784;20.604;2023-01-19T21:22:54;20.60;;;14.75;;
43990;SDS011;29654;50.784;20.604;2023-01-19T21:27:58;20.13;;;14.75;;
43990;SDS011;29654;50.784;20.604;2023-01-19T21:33:00;22.27;;;16.13;;
43990;SDS011;29654;50.784;20.604;2023-01-19T21:38:05;18.92;;;14.52;;
43990;SDS011;29654;50.784;20.604;2023-01-19T21:43:08;19.70;;;15.15;;
43990;SDS011;29654;50.784;20.604;2023-01-19T21:48:11;18.58;;;14.32;;
43990;SDS011;29654;50.784;20.604;2023-01-19T21:53:15;22.08;;;16.05;;
43990;SDS011;29654;50.784;20.604;2023-01-19T21:58:18;20.83;;;15.82;;
43990;SDS011;29654;50.784;20.604;2023-01-19T22:03:22;21.92;;;15.90;;
43990;SDS011;29654;50.784;20.604;2023-01-19T22:08:28;18.13;;;14.77;;
43990;SDS011;29654;50.784;20.604;2023-01-19T22:13:30;19.95;;;15.60;;
43990;SDS011;29654;50.784;20.604;2023-01-19T22:18:33;21.83;;;15.40;;
43990;SDS011;29654;50.784;20.604;2023-01-19T22:23:38;20.67;;;15.35;;
43990;SDS011;29654;50.784;20.604;2023-01-19T22:28:41;19.65;;;15.35;;
43990;SDS011;29654;50.784;20.604;2023-01-19T22:33:44;20.05;;;14.80;;
43990;SDS011;29654;50.784;20.604;2023-01-19T22:38:50;20.65;;;15.48;;
43990;SDS011;29654;50.784;20.604;2023-01-19T22:43:59;19.70;;;14.73;;
43990;SDS011;29654;50.784;20.604;2023-01-19T22:49:03;19.70;;;15.05;;
43990;SDS011;29654;50.784;20.604;2023-01-19T22:54:09;21.70;;;15.85;;
43990;SDS011;29654;50.784;20.604;2023-01-19T22:59:11;17.33;;;13.23;;
43990;SDS011;29654;50.784;20.604;2023-01-19T23:04:14;19.73;;;14.75;;
43990;SDS011;29654;50.784;20.604;2023-01-19T23:09:18;18.35;;;13.38;;
43990;SDS011;29654;50.784;20.604;2023-01-19T23:14:21;18.25;;;14.45;;
43990;SDS011;29654;50.784;20.604;2023-01-19T23:19:24;17.92;;;13.52;;
43990;SDS011;29654;50.784;20.604;2023-01-19T23:24:27;16.70;;;14.05;;
43990;SDS011;29654;50.784;20.604;2023-01-19T23:29:30;15.55;;;12.93;;
43990;SDS011;29654;50.784;20.604;2023-01-19T23:34:33;19.65;;;13.98;;
43990;SDS011;29654;50.784;20.604;2023-01-19T23:39:37;19.17;;;14.68;;
43990;SDS011;29654;50.784;20.604;2023-01-19T23:44:39;18.95;;;14.70;;
43990;SDS011;29654;50.784;20.604;2023-01-19T23:49:43;19.25;;;14.10;;
43990;SDS011;29654;50.784;20.604;2023-01-19T23:54:47;16.70;;;13.68;;
43990;SDS011;29654;50.784;20.604;2023-01-19T23:59:49;16.45;;;12.52;;
